Time;durP1;ratioP1;P1;durP2;ratioP2;P2;SDS_P1;SDS_P2;PMS_P1;PMS_P2;Temp;Humidity;BMP_temperature;BMP_pressure;BME280_temperature;BME280_humidity;BME280_pressure;Samples;Min_cycle;Max_cycle;Signal;HPM_P1;HPM_P2
2023/10/08 00:01:41;;;;;;;1.20;0.28;;;;;;;;;;5060155;28;20033;-76
2023/10/08 00:04:07;;;;;;;2.40;0.40;;;;;;;;;;5066798;28;20035;-76
2023/10/08 00:06:33;;;;;;;2.00;0.30;;;;;;;;;;5066331;28;20029;-76
2023/10/08 00:09:00;;;;;;;1.17;0.30;;;;;;;;;;5055546;28;20087;-75
2023/10/08 00:11:29;;;;;;;3.70;0.40;;;;;;;;;;5059962;28;20082;-76
2023/10/08 00:13:56;;;;;;;1.95;0.32;;;;;;;;;;5062209;28;20028;-76
2023/10/08 00:16:22;;;;;;;0.93;0.30;;;;;;;;;;5070620;28;20052;-76
2023/10/08 00:18:49;;;;;;;3.92;0.77;;;;;;;;;;5055468;28;20159;-76
2023/10/08 00:21:19;;;;;;;1.00;0.40;;;;;;;;;;5062023;28;20140;-75
2023/10/08 00:23:52;;;;;;;2.15;0.47;;;;;;;;;;5056863;28;20025;-76
2023/10/08 00:26:30;;;;;;;4.30;0.85;;;;;;;;;;5068297;28;20087;-75
2023/10/08 00:29:00;;;;;;;0.90;0.30;;;;;;;;;;5064896;28;20399;-75
2023/10/08 00:31:37;;;;;;;1.90;0.25;;;;;;;;;;5067981;28;20071;-75
2023/10/08 00:34:05;;;;;;;1.30;0.32;;;;;;;;;;5062810;28;20032;-75
2023/10/08 00:36:31;;;;;;;3.78;0.40;;;;;;;;;;5063731;28;20490;-75
2023/10/08 00:39:00;;;;;;;2.55;0.85;;;;;;;;;;5068578;28;20036;-75
2023/10/08 00:41:32;;;;;;;1.45;0.30;;;;;;;;;;5061695;28;20510;-74
2023/10/08 00:44:00;;;;;;;2.80;0.30;;;;;;;;;;5058698;28;20111;-75
2023/10/08 00:46:32;;;;;;;0.70;0.40;;;;;;;;;;5067030;28;20712;-75
2023/10/08 00:48:58;;;;;;;0.40;0.40;;;;;;;;;;5067363;28;20073;-74
2023/10/08 00:51:26;;;;;;;2.50;0.50;;;;;;;;;;5067170;28;20445;-75
2023/10/08 00:54:05;;;;;;;1.13;0.40;;;;;;;;;;5058173;28;20062;-74
2023/10/08 00:59:46;;;;;;;1.60;0.30;;;;;;;;;;5042107;28;20036;-75
2023/10/08 01:02:15;;;;;;;1.73;0.30;;;;;;;;;;5061938;28;20035;-75
2023/10/08 01:04:43;;;;;;;1.42;0.40;;;;;;;;;;5062532;28;20092;-76
2023/10/08 01:07:15;;;;;;;3.03;0.50;;;;;;;;;;5055327;28;20047;-75
2023/10/08 01:09:42;;;;;;;0.85;0.30;;;;;;;;;;5059237;28;20025;-76
2023/10/08 01:12:13;;;;;;;0.82;0.30;;;;;;;;;;5062545;28;20024;-75
2023/10/08 01:14:42;;;;;;;1.70;0.40;;;;;;;;;;5071004;28;20063;-75
2023/10/08 01:17:08;;;;;;;1.88;0.57;;;;;;;;;;5058290;28;20017;-75
2023/10/08 01:19:40;;;;;;;2.28;0.70;;;;;;;;;;5061147;28;20040;-75
2023/10/08 01:22:16;;;;;;;3.30;0.50;;;;;;;;;;5061397;28;20063;-75
2023/10/08 01:24:43;;;;;;;2.08;0.55;;;;;;;;;;5057822;28;20057;-75
2023/10/08 01:27:11;;;;;;;3.28;0.60;;;;;;;;;;5066653;28;20028;-75
2023/10/08 01:29:38;;;;;;;3.08;0.60;;;;;;;;;;5063491;28;20052;-75
2023/10/08 01:32:09;;;;;;;2.35;0.60;;;;;;;;;;5059923;28;20053;-75
2023/10/08 01:34:36;;;;;;;2.78;0.40;;;;;;;;;;5054650;28;20028;-75
2023/10/08 01:37:08;;;;;;;1.33;0.60;;;;;;;;;;5059231;28;20025;-74
2023/10/08 01:39:36;;;;;;;0.68;0.40;;;;;;;;;;5057345;28;20486;-75
2023/10/08 01:42:02;;;;;;;5.75;0.75;;;;;;;;;;5060098;28;20025;-76
2023/10/08 01:44:28;;;;;;;3.25;0.60;;;;;;;;;;5061198;28;20123;-76
2023/10/08 01:46:58;;;;;;;1.75;0.50;;;;;;;;;;5066869;28;20033;-75
2023/10/08 01:49:29;;;;;;;3.90;1.20;;;;;;;;;;5055091;28;20453;-75
2023/10/08 01:51:55;;;;;;;0.63;0.35;;;;;;;;;;5056383;28;20055;-75
2023/10/08 01:54:21;;;;;;;2.28;0.60;;;;;;;;;;5076699;28;20043;-75
2023/10/08 01:56:48;;;;;;;2.80;0.50;;;;;;;;;;5051938;28;20037;-74
2023/10/08 01:59:15;;;;;;;3.08;0.50;;;;;;;;;;5068779;28;20394;-77
2023/10/08 02:01:42;;;;;;;1.30;0.50;;;;;;;;;;5056119;28;20023;-75
2023/10/08 02:04:09;;;;;;;1.17;0.50;;;;;;;;;;5058388;28;20351;-76
2023/10/08 02:06:36;;;;;;;2.42;0.68;;;;;;;;;;5058187;28;20112;-76
2023/10/08 02:09:09;;;;;;;2.13;0.70;;;;;;;;;;5065953;28;20029;-75
2023/10/08 02:11:46;;;;;;;5.30;1.25;;;;;;;;;;5056841;28;20033;-75
2023/10/08 02:14:15;;;;;;;1.35;0.52;;;;;;;;;;5062940;28;20029;-75
2023/10/08 02:16:42;;;;;;;3.08;0.88;;;;;;;;;;5057354;28;20037;-76
2023/10/08 02:19:10;;;;;;;1.08;0.55;;;;;;;;;;5055486;28;20078;-75
2023/10/08 02:21:37;;;;;;;0.77;0.32;;;;;;;;;;5052895;28;20032;-74
2023/10/08 02:24:04;;;;;;;2.72;0.68;;;;;;;;;;5057186;28;20158;-77
2023/10/08 02:26:31;;;;;;;4.18;0.63;;;;;;;;;;5067033;28;20036;-75
2023/10/08 02:28:59;;;;;;;1.92;0.50;;;;;;;;;;5063555;28;20029;-75
2023/10/08 02:31:25;;;;;;;3.20;0.50;;;;;;;;;;5056156;28;20192;-77
2023/10/08 02:33:51;;;;;;;3.50;0.93;;;;;;;;;;5060095;28;20517;-75
2023/10/08 02:36:19;;;;;;;4.05;0.70;;;;;;;;;;5052241;28;20113;-75
2023/10/08 02:38:45;;;;;;;3.03;1.00;;;;;;;;;;5057833;28;20041;-75
2023/10/08 02:41:16;;;;;;;3.25;0.70;;;;;;;;;;5061796;28;20398;-75
2023/10/08 02:43:45;;;;;;;2.42;0.52;;;;;;;;;;5064003;28;20090;-76
2023/10/08 02:46:15;;;;;;;2.08;0.50;;;;;;;;;;5058274;28;20078;-75
2023/10/08 02:48:41;;;;;;;7.22;0.50;;;;;;;;;;5060115;28;20033;-76
2023/10/08 02:51:14;;;;;;;1.50;0.68;;;;;;;;;;5076034;28;20037;-75
2023/10/08 02:53:43;;;;;;;3.75;0.60;;;;;;;;;;5058517;28;20076;-75
2023/10/08 02:56:13;;;;;;;2.60;0.77;;;;;;;;;;5054431;28;20139;-76
2023/10/08 02:58:47;;;;;;;3.85;0.70;;;;;;;;;;5056125;28;20083;-76
2023/10/08 03:01:14;;;;;;;2.38;0.75;;;;;;;;;;5058957;28;20024;-75
2023/10/08 03:03:46;;;;;;;2.60;0.80;;;;;;;;;;5053888;28;20029;-75
2023/10/08 03:06:14;;;;;;;2.75;1.90;;;;;;;;;;5064404;28;20025;-75
2023/10/08 03:08:43;;;;;;;1.23;0.63;;;;;;;;;;5056109;28;20061;-75
2023/10/08 03:11:16;;;;;;;2.20;0.98;;;;;;;;;;5079195;28;20147;-75
2023/10/08 03:13:51;;;;;;;2.83;1.20;;;;;;;;;;5056043;28;20029;-75
2023/10/08 03:16:21;;;;;;;7.13;1.25;;;;;;;;;;5059642;28;20052;-75
2023/10/08 03:18:50;;;;;;;1.17;0.75;;;;;;;;;;5066316;28;20039;-75
2023/10/08 03:22:04;;;;;;;5.05;0.85;;;;;;;;;;5065168;28;20112;-76
2023/10/08 03:24:11;;;;;;;1.42;0.80;;;;;;;;;;5051441;28;20036;-75
2023/10/08 03:26:39;;;;;;;3.13;0.75;;;;;;;;;;5056860;28;20120;-75
2023/10/08 03:29:14;;;;;;;4.95;0.90;;;;;;;;;;5050340;28;20037;-75
2023/10/08 03:34:14;;;;;;;2.63;1.10;;;;;;;;;;5067317;28;20497;-76
2023/10/08 03:36:44;;;;;;;4.93;0.80;;;;;;;;;;5059727;28;20025;-75
2023/10/08 03:39:20;;;;;;;2.20;1.30;;;;;;;;;;5061479;28;20116;-76
2023/10/08 03:42:05;;;;;;;2.05;1.08;;;;;;;;;;5055207;28;20048;-76
2023/10/08 03:44:31;;;;;;;3.28;0.80;;;;;;;;;;5060867;28;20021;-76
2023/10/08 03:46:57;;;;;;;3.22;1.00;;;;;;;;;;5064814;28;20048;-75
2023/10/08 03:51:52;;;;;;;3.15;0.57;;;;;;;;;;5067047;28;20104;-76
2023/10/08 03:54:29;;;;;;;1.67;0.73;;;;;;;;;;5066912;28;20033;-75
2023/10/08 03:56:56;;;;;;;2.05;0.68;;;;;;;;;;5057487;28;20478;-77
2023/10/08 03:59:31;;;;;;;3.33;0.88;;;;;;;;;;5058003;28;20445;-80
2023/10/08 04:01:59;;;;;;;2.40;1.08;;;;;;;;;;5066229;28;20541;-75
2023/10/08 04:04:48;;;;;;;1.45;0.80;;;;;;;;;;5066470;28;20047;-75
2023/10/08 04:12:35;;;;;;;3.60;0.90;;;;;;;;;;5063318;28;20048;-75
2023/10/08 04:15:07;;;;;;;1.50;0.90;;;;;;;;;;5063546;28;20055;-75
2023/10/08 04:17:43;;;;;;;1.25;0.82;;;;;;;;;;5063686;28;20032;-75
2023/10/08 04:20:32;;;;;;;1.77;1.05;;;;;;;;;;5057669;28;20624;-75
2023/10/08 04:22:55;;;;;;;3.50;0.98;;;;;;;;;;5064269;28;20444;-74
2023/10/08 04:25:21;;;;;;;2.50;1.08;;;;;;;;;;5057145;28;20037;-74
2023/10/08 04:27:49;;;;;;;4.43;1.10;;;;;;;;;;5068424;28;20068;-74
2023/10/08 04:30:16;;;;;;;1.90;0.90;;;;;;;;;;5071900;28;20030;-75
2023/10/08 04:32:42;;;;;;;4.93;3.30;;;;;;;;;;5064559;28;20111;-74
2023/10/08 04:35:14;;;;;;;3.00;0.90;;;;;;;;;;5064143;28;20085;-77
2023/10/08 04:37:41;;;;;;;2.10;0.85;;;;;;;;;;5055750;28;20046;-75
2023/10/08 04:40:15;;;;;;;3.38;0.80;;;;;;;;;;5066198;28;20037;-75
2023/10/08 04:42:44;;;;;;;1.52;0.63;;;;;;;;;;5060665;28;20168;-75
2023/10/08 04:45:14;;;;;;;4.28;1.02;;;;;;;;;;5062463;28;20037;-75
2023/10/08 04:47:42;;;;;;;4.80;0.82;;;;;;;;;;5067947;28;20052;-74
2023/10/08 04:50:17;;;;;;;4.13;1.08;;;;;;;;;;5068572;28;20024;-79
2023/10/08 04:52:58;;;;;;;3.40;0.77;;;;;;;;;;5066507;28;20120;-75
2023/10/08 04:55:28;;;;;;;3.40;0.80;;;;;;;;;;5062718;28;20061;-78
2023/10/08 04:57:55;;;;;;;3.65;0.93;;;;;;;;;;5080103;28;20470;-75
2023/10/08 05:00:41;;;;;;;5.60;1.42;;;;;;;;;;5068419;28;20394;-75
2023/10/08 05:03:16;;;;;;;2.17;0.65;;;;;;;;;;5056136;28;20055;-75
2023/10/08 05:08:47;;;;;;;3.50;0.95;;;;;;;;;;5041779;28;20159;-76
2023/10/08 05:14:16;;;;;;;4.97;1.50;;;;;;;;;;5060934;28;20102;-76
2023/10/08 05:17:00;;;;;;;5.60;2.05;;;;;;;;;;5058555;28;20036;-75
2023/10/08 05:22:44;;;;;;;5.15;0.90;;;;;;;;;;5055378;28;20117;-74
2023/10/08 05:28:11;;;;;;;2.97;0.80;;;;;;;;;;5072611;28;20128;-74
2023/10/08 05:41:51;;;;;;;3.58;1.00;;;;;;;;;;5072376;28;20496;-72
2023/10/08 05:54:35;;;;;;;3.63;1.00;;;;;;;;;;5060484;28;20572;-75
2023/10/08 06:13:06;;;;;;;8.75;1.38;;;;;;;;;;5070030;28;20040;-75
2023/10/08 06:18:13;;;;;;;3.67;1.20;;;;;;;;;;5059108;28;20120;-76
2023/10/08 06:20:42;;;;;;;2.70;0.70;;;;;;;;;;5055135;28;20032;-74
2023/10/08 06:23:09;;;;;;;3.00;0.90;;;;;;;;;;5058787;28;20040;-73
2023/10/08 06:25:44;;;;;;;11.35;1.20;;;;;;;;;;5059731;28;20032;-73
2023/10/08 06:28:11;;;;;;;7.13;0.82;;;;;;;;;;5062630;28;20020;-76
2023/10/08 06:30:40;;;;;;;5.63;1.30;;;;;;;;;;5066611;28;20027;-75
2023/10/08 06:33:07;;;;;;;3.03;1.05;;;;;;;;;;5058457;28;20040;-74
2023/10/08 06:35:33;;;;;;;4.82;1.00;;;;;;;;;;5067392;28;20106;-74
2023/10/08 06:38:01;;;;;;;6.25;1.10;;;;;;;;;;5063921;28;20047;-73
2023/10/08 06:43:11;;;;;;;24.15;12.95;;;;;;;;;;5068934;28;20040;-73
2023/10/08 06:45:37;;;;;;;13.13;3.97;;;;;;;;;;5066284;28;20152;-74
2023/10/08 06:48:06;;;;;;;25.33;14.68;;;;;;;;;;5069900;28;20036;-73
2023/10/08 06:50:35;;;;;;;10.27;1.92;;;;;;;;;;5067217;28;20029;-74
2023/10/08 06:53:07;;;;;;;4.68;1.70;;;;;;;;;;5067681;28;20044;-73
2023/10/08 06:55:35;;;;;;;4.47;1.70;;;;;;;;;;5068457;28;20028;-72
2023/10/08 06:58:05;;;;;;;5.30;0.90;;;;;;;;;;5066791;28;20086;-73
2023/10/08 07:00:38;;;;;;;4.10;1.05;;;;;;;;;;5068091;28;20020;-73
2023/10/08 07:03:04;;;;;;;9.20;2.10;;;;;;;;;;5066440;28;20543;-74
2023/10/08 07:05:36;;;;;;;5.85;1.10;;;;;;;;;;5064619;28;20115;-74
2023/10/08 07:08:06;;;;;;;6.35;1.25;;;;;;;;;;5065730;28;20075;-74
2023/10/08 07:10:34;;;;;;;5.85;1.33;;;;;;;;;;5062442;28;20032;-75
2023/10/08 07:13:00;;;;;;;4.50;1.13;;;;;;;;;;5066862;28;20057;-74
2023/10/08 07:15:26;;;;;;;5.35;2.25;;;;;;;;;;5066651;28;20032;-74
2023/10/08 07:17:52;;;;;;;5.40;1.35;;;;;;;;;;5064865;28;20032;-73
2023/10/08 07:20:22;;;;;;;6.95;1.10;;;;;;;;;;5068497;28;20059;-73
2023/10/08 07:22:54;;;;;;;6.53;1.15;;;;;;;;;;5068859;28;20189;-73
2023/10/08 07:25:22;;;;;;;9.55;3.17;;;;;;;;;;5070171;28;20040;-75
2023/10/08 07:27:48;;;;;;;36.28;20.65;;;;;;;;;;5071307;28;20032;-75
2023/10/08 07:30:26;;;;;;;16.40;5.90;;;;;;;;;;5071088;28;20028;-73
2023/10/08 07:32:54;;;;;;;12.40;6.38;;;;;;;;;;5064468;28;20041;-73
2023/10/08 07:37:50;;;;;;;4.47;1.63;;;;;;;;;;5069451;28;20047;-71
2023/10/08 07:40:20;;;;;;;18.67;2.40;;;;;;;;;;5069896;28;20535;-72
2023/10/08 07:42:51;;;;;;;9.35;2.05;;;;;;;;;;5068509;28;20036;-72
2023/10/08 07:45:17;;;;;;;6.57;1.40;;;;;;;;;;5070391;28;20066;-72
2023/10/08 07:47:44;;;;;;;5.25;1.58;;;;;;;;;;5069314;28;20032;-73
2023/10/08 07:50:15;;;;;;;5.38;1.23;;;;;;;;;;5068728;28;20462;-73
2023/10/08 07:52:44;;;;;;;5.32;1.23;;;;;;;;;;5069188;28;20132;-72
2023/10/08 07:55:10;;;;;;;9.98;2.13;;;;;;;;;;5066265;28;20374;-75
2023/10/08 07:57:36;;;;;;;5.65;1.48;;;;;;;;;;5068678;28;20044;-74
2023/10/08 08:00:18;;;;;;;6.32;1.48;;;;;;;;;;5069093;28;20456;-75
2023/10/08 08:02:44;;;;;;;6.07;1.60;;;;;;;;;;5067488;28;20485;-73
2023/10/08 08:05:16;;;;;;;4.15;1.33;;;;;;;;;;5068201;28;20115;-74
2023/10/08 08:07:43;;;;;;;8.70;1.40;;;;;;;;;;5069721;28;20525;-73
2023/10/08 08:10:11;;;;;;;5.43;1.20;;;;;;;;;;5068801;28;20437;-73
2023/10/08 08:12:37;;;;;;;8.88;1.50;;;;;;;;;;5069704;28;20039;-76
2023/10/08 08:15:15;;;;;;;5.28;1.02;;;;;;;;;;5069329;28;20036;-75
2023/10/08 08:17:42;;;;;;;6.72;1.20;;;;;;;;;;5069467;28;20037;-72
2023/10/08 08:20:17;;;;;;;4.75;1.30;;;;;;;;;;5069157;28;20024;-74
2023/10/08 08:22:49;;;;;;;7.85;1.73;;;;;;;;;;5070108;28;20160;-74
2023/10/08 08:25:34;;;;;;;7.50;1.88;;;;;;;;;;5068120;28;20024;-73
2023/10/08 08:28:00;;;;;;;7.43;1.60;;;;;;;;;;5067303;28;20657;-73
2023/10/08 08:30:26;;;;;;;4.45;1.20;;;;;;;;;;5067253;28;20067;-72
2023/10/08 08:32:54;;;;;;;5.40;1.30;;;;;;;;;;5070353;28;20052;-72
2023/10/08 08:35:20;;;;;;;7.75;1.50;;;;;;;;;;5069699;28;20024;-73
2023/10/08 08:37:46;;;;;;;8.10;2.20;;;;;;;;;;5063196;28;20048;-74
2023/10/08 08:40:17;;;;;;;7.47;1.20;;;;;;;;;;5070104;28;20489;-77
2023/10/08 08:42:45;;;;;;;9.35;1.80;;;;;;;;;;5082283;28;20029;-74
2023/10/08 08:45:13;;;;;;;5.47;1.33;;;;;;;;;;5068407;28;20178;-76
2023/10/08 08:47:40;;;;;;;9.13;1.48;;;;;;;;;;5067733;28;20099;-74
2023/10/08 08:50:10;;;;;;;5.38;0.98;;;;;;;;;;5064989;28;20037;-74
2023/10/08 08:52:39;;;;;;;7.03;1.40;;;;;;;;;;5083649;28;20181;-74
2023/10/08 08:55:16;;;;;;;6.47;1.23;;;;;;;;;;5070618;28;20033;-74
2023/10/08 08:57:46;;;;;;;7.95;1.27;;;;;;;;;;5062586;28;20024;-74
2023/10/08 09:00:14;;;;;;;10.77;2.85;;;;;;;;;;5065505;28;20024;-73
2023/10/08 09:02:40;;;;;;;23.20;12.63;;;;;;;;;;5068490;28;20028;-73
2023/10/08 09:07:58;;;;;;;11.43;2.20;;;;;;;;;;5066348;28;20410;-74
2023/10/08 09:10:27;;;;;;;7.80;2.30;;;;;;;;;;5059931;28;20040;-74
2023/10/08 09:12:54;;;;;;;12.25;1.92;;;;;;;;;;5067984;28;20036;-73
2023/10/08 09:15:23;;;;;;;8.02;1.38;;;;;;;;;;5067624;28;20040;-74
2023/10/08 09:17:51;;;;;;;10.25;1.42;;;;;;;;;;5069435;28;20123;-74
2023/10/08 09:20:20;;;;;;;6.78;1.45;;;;;;;;;;5069439;28;20021;-74
2023/10/08 09:22:47;;;;;;;5.55;1.23;;;;;;;;;;5067033;28;20060;-74
2023/10/08 09:25:24;;;;;;;10.38;1.90;;;;;;;;;;5068786;28;20386;-74
2023/10/08 09:27:55;;;;;;;9.35;1.92;;;;;;;;;;5067149;28;20150;-73
2023/10/08 09:30:21;;;;;;;7.47;1.83;;;;;;;;;;5069338;28;20064;-74
2023/10/08 09:32:49;;;;;;;6.25;1.38;;;;;;;;;;5066718;28;20056;-74
2023/10/08 09:35:16;;;;;;;9.10;2.03;;;;;;;;;;5065321;28;20039;-74
2023/10/08 09:37:43;;;;;;;9.18;1.95;;;;;;;;;;5068240;28;20036;-73
2023/10/08 09:40:11;;;;;;;6.32;1.35;;;;;;;;;;5068213;28;20031;-76
2023/10/08 09:42:41;;;;;;;7.55;2.03;;;;;;;;;;5069515;28;20096;-75
2023/10/08 09:45:08;;;;;;;12.48;5.30;;;;;;;;;;5070208;28;20381;-76
2023/10/08 09:47:36;;;;;;;9.18;3.78;;;;;;;;;;5071782;28;20198;-75
2023/10/08 09:50:07;;;;;;;11.90;3.13;;;;;;;;;;5070701;28;20036;-76
2023/10/08 09:52:50;;;;;;;7.53;2.30;;;;;;;;;;5071326;28;20086;-76
2023/10/08 09:55:18;;;;;;;7.72;2.05;;;;;;;;;;5069545;28;20021;-74
2023/10/08 09:57:44;;;;;;;6.35;1.35;;;;;;;;;;5064654;28;20029;-77
2023/10/08 10:00:15;;;;;;;5.13;1.85;;;;;;;;;;5066083;28;20035;-76
2023/10/08 10:02:44;;;;;;;7.25;1.70;;;;;;;;;;5065632;28;20052;-76
2023/10/08 10:05:13;;;;;;;7.85;1.52;;;;;;;;;;5066244;28;20040;-76
2023/10/08 10:07:43;;;;;;;7.60;1.60;;;;;;;;;;5067101;28;20112;-76
2023/10/08 10:10:31;;;;;;;11.52;2.05;;;;;;;;;;5069851;28;20090;-76
2023/10/08 10:13:01;;;;;;;11.88;2.80;;;;;;;;;;5064292;28;20093;-77
2023/10/08 10:15:30;;;;;;;7.05;2.40;;;;;;;;;;5066303;28;20021;-77
2023/10/08 10:17:59;;;;;;;9.73;2.22;;;;;;;;;;5067960;28;20099;-76
2023/10/08 10:20:25;;;;;;;9.05;2.70;;;;;;;;;;5066088;28;20064;-75
2023/10/08 10:22:51;;;;;;;9.82;4.78;;;;;;;;;;5067107;28;20032;-74
2023/10/08 10:25:17;;;;;;;11.35;2.55;;;;;;;;;;5060288;28;20025;-74
2023/10/08 10:28:04;;;;;;;7.50;1.92;;;22.30;99.90;;;;;;5065736;28;20109;-74
2023/10/08 10:30:30;;;;;;;6.70;1.42;;;;;;;;;;5060622;28;20056;-74
2023/10/08 10:32:59;;;;;;;13.00;1.95;;;;;;;;;;5068496;28;20516;-75
2023/10/08 10:35:27;;;;;;;9.27;1.40;;;;;;;;;;5066181;28;20055;-75
2023/10/08 10:37:55;;;;;;;6.18;1.55;;;;;;;;;;5069163;28;20425;-75
2023/10/08 10:40:29;;;;;;;11.02;2.00;;;;;;;;;;5061614;28;20056;-75
2023/10/08 10:43:00;;;;;;;8.02;1.77;;;;;;;;;;5068507;28;20028;-75
2023/10/08 10:48:12;;;;;;;9.32;1.63;;;;;;;;;;5066090;28;20283;-75
2023/10/08 10:53:27;;;;;;;11.18;4.50;;;;;;;;;;5065648;28;20071;-85
2023/10/08 10:56:03;;;;;;;12.32;3.47;;;;;;;;;;5068933;28;20040;-81
2023/10/08 10:58:38;;;;;;;5.88;1.75;;;;;;;;;;5065009;28;20020;-75
2023/10/08 11:01:15;;;;;;;7.10;1.13;;;;;;;;;;5064134;28;20036;-74
2023/10/08 11:03:44;;;;;;;11.82;1.90;;;;;;;;;;5067835;28;20066;-74
2023/10/08 11:06:15;;;;;;;7.85;1.65;;;;;;;;;;5065266;28;20059;-77
2023/10/08 11:08:46;;;;;;;7.45;1.70;;;;;;;;;;5084659;28;20446;-75
2023/10/08 11:11:12;;;;;;;8.13;1.65;;;;;;;;;;5064555;28;20059;-77
2023/10/08 11:13:38;;;;;;;9.65;3.35;;;;;;;;;;5066401;28;20036;-80
2023/10/08 11:16:07;;;;;;;21.45;9.77;;;;;;;;;;5068002;28;20032;-76
2023/10/08 11:18:33;;;;;;;8.77;1.75;;;;;;;;;;5070074;28;20114;-75
2023/10/08 11:21:16;;;;;;;9.63;2.35;;;;;;;;;;5069617;28;20039;-76
2023/10/08 11:23:43;;;;;;;12.23;2.25;;;;;;;;;;5069642;28;20059;-75
2023/10/08 11:26:09;;;;;;;7.60;1.50;;;;;;;;;;5069647;28;20404;-77
2023/10/08 11:29:00;;;;;;;8.32;1.80;;;;;;;;;;5069397;28;20025;-76
2023/10/08 11:31:27;;;;;;;8.70;1.70;;;;;;;;;;5063442;28;20080;-76
2023/10/08 11:33:58;;;;;;;9.25;1.27;;;;;;;;;;5056653;28;20456;-77
2023/10/08 11:36:27;;;;;;;4.82;1.20;;;;;;;;;;5070094;28;20107;-76
2023/10/08 11:39:00;;;;;;;8.85;1.30;;;;;;;;;;5068426;28;20036;-76
2023/10/08 11:41:27;;;;;;;9.57;1.50;;;;;;;;;;5066988;28;20036;-75
2023/10/08 11:43:56;;;;;;;7.10;1.20;;;;;;;;;;5070659;28;20025;-76
2023/10/08 11:46:51;;;;;;;9.18;1.63;;;;;;;;;;5061962;28;20052;-75
2023/10/08 11:49:18;;;;;;;7.10;1.63;;;;;;;;;;5064378;28;20378;-77
2023/10/08 11:51:45;;;;;;;6.45;1.38;;;;;;;;;;5070419;28;20028;-75
2023/10/08 11:54:12;;;;;;;5.13;1.20;;;;;;;;;;5070786;28;20107;-76
2023/10/08 11:56:38;;;;;;;6.05;1.27;;;;;;;;;;5069179;28;20055;-76
2023/10/08 11:59:11;;;;;;;7.45;2.40;;;;;;;;;;5053815;28;20025;-75
2023/10/08 12:01:37;;;;;;;10.90;1.95;;;;;;;;;;5059819;28;20085;-79
2023/10/08 12:04:04;;;;;;;5.60;1.10;;;;;;;;;;5066806;28;20035;-74
2023/10/08 12:06:30;;;;;;;6.00;1.17;;;;;;;;;;5066404;28;20077;-78
2023/10/08 12:08:59;;;;;;;7.00;1.35;;;;;;;;;;5068981;28;20123;-76
2023/10/08 12:11:32;;;;;;;5.78;1.70;;;;;;;;;;5070728;28;20036;-76
2023/10/08 12:13:59;;;;;;;6.15;1.17;;;;;;;;;;5068201;28;20032;-77
2023/10/08 12:16:29;;;;;;;10.52;2.67;;;;;;;;;;5069907;28;20470;-79
2023/10/08 12:18:58;;;;;;;4.00;1.35;;;;;;;;;;5071082;28;20067;-76
2023/10/08 12:21:31;;;;;;;5.07;1.38;;;;;;;;;;5069281;28;20038;-76
2023/10/08 12:24:04;;;;;;;4.45;1.55;;;;;;;;;;5069867;28;20024;-75
2023/10/08 12:26:31;;;;;;;7.63;1.65;;;;;;;;;;5069471;28;20048;-78
2023/10/08 12:28:57;;;;;;;6.00;1.25;;;;;;;;;;5068001;28;20043;-79
2023/10/08 12:31:24;;;;;;;5.72;2.60;;;;;;;;;;5065973;28;20516;-77
2023/10/08 12:33:53;;;;;;;5.18;1.63;;;;;;;;;;5074870;28;20041;-74
2023/10/08 12:36:26;;;;;;;7.75;2.45;;;;;;;;;;5070492;28;20028;-72
2023/10/08 12:38:58;;;;;;;10.63;2.15;;;;;;;;;;5067368;28;20386;-72
2023/10/08 12:41:26;;;;;;;11.75;1.58;;;;;;;;;;5068186;28;20131;-76
2023/10/08 12:43:52;;;;;;;8.45;1.63;;;;;;;;;;5066229;28;20067;-78
2023/10/08 12:46:23;;;;;;;5.00;1.10;;;;;;;;;;5067754;28;20029;-75
2023/10/08 12:48:52;;;;;;;8.10;1.42;;;;;;;;;;5068837;28;20052;-75
2023/10/08 12:51:18;;;;;;;5.72;1.20;;;;;;;;;;5067740;28;20086;-75
2023/10/08 12:53:50;;;;;;;8.63;1.50;;;;;;;;;;5084973;28;20102;-75
2023/10/08 12:56:16;;;;;;;;;;;20.40;99.90;;;;;;5068434;28;20040;-76
2023/10/08 12:58:48;;;;;;;4.32;1.15;;;;;;;;;;5070757;28;19909;-75
2023/10/08 13:01:17;;;;;;;6.15;1.45;;;;;;;;;;5069094;28;20523;-79
2023/10/08 13:03:47;;;;;;;8.25;1.15;;;;;;;;;;5067710;28;20028;-77
2023/10/08 13:06:22;;;;;;;9.70;2.47;;;;;;;;;;5067637;28;20029;-76
2023/10/08 13:08:57;;;;;;;10.40;4.35;;;;;;;;;;5066675;28;20123;-77
2023/10/08 13:11:24;;;;;;;8.50;1.30;;;;;;;;;;5065143;28;20059;-74
2023/10/08 13:13:51;;;;;;;5.03;1.10;;;;;;;;;;5061677;28;20398;-76
2023/10/08 13:16:18;;;;;;;6.72;2.17;;;;;;;;;;5063919;28;20398;-75
2023/10/08 13:18:44;;;;;;;7.68;2.20;;;;;;;;;;5066550;28;20020;-74
2023/10/08 13:21:10;;;;;;;17.15;2.17;;;;;;;;;;5062823;28;20060;-76
2023/10/08 13:23:36;;;;;;;7.95;1.50;;;;;;;;;;5061718;28;20029;-78
2023/10/08 13:26:04;;;;;;;8.25;1.45;;;;;;;;;;5059805;28;20047;-75
2023/10/08 13:28:33;;;;;;;7.20;0.90;;;;;;;;;;5063509;28;20438;-74
2023/10/08 13:30:59;;;;;;;5.90;1.50;;;;;;;;;;5077357;28;20060;-75
2023/10/08 13:33:26;;;;;;;5.43;1.38;;;;;;;;;;5066611;28;20032;-75
2023/10/08 13:35:52;;;;;;;5.55;1.20;;;;;;;;;;5066473;28;20043;-76
2023/10/08 13:38:23;;;;;;;8.18;1.80;;;;;;;;;;5064677;28;20155;-75
2023/10/08 13:41:06;;;;;;;9.05;1.95;;;;;;;;;;5063902;28;20089;-75
2023/10/08 13:43:40;;;;;;;6.50;1.58;;;;;;;;;;5064003;28;20111;-75
2023/10/08 13:46:12;;;;;;;4.80;0.95;;;;;;;;;;5066204;28;20147;-75
2023/10/08 13:48:38;;;;;;;8.00;1.33;;;;;;;;;;5067367;28;20115;-75
2023/10/08 13:51:05;;;;;;;7.65;1.65;;;;;;;;;;5065343;28;20036;-76
2023/10/08 13:53:36;;;;;;;5.05;1.27;;;;;;;;;;5064771;28;20070;-79
2023/10/08 13:56:04;;;;;;;7.32;1.77;;;;;;;;;;5064824;28;20112;-76
2023/10/08 13:58:30;;;;;;;6.15;1.35;;;;;;;;;;5079279;28;20024;-74
2023/10/08 14:01:00;;;;;;;7.43;1.98;;;;;;;;;;5065506;28;20131;-74
2023/10/08 14:03:31;;;;;;;9.02;1.67;;;;;;;;;;5060940;28;20031;-75
2023/10/08 14:06:04;;;;;;;6.28;1.50;;;;;;;;;;5063489;28;20371;-74
2023/10/08 14:08:31;;;;;;;6.10;1.58;;;;;;;;;;5062155;28;20115;-74
2023/10/08 14:11:02;;;;;;;6.75;1.20;;;;;;;;;;5063257;28;20028;-74
2023/10/08 14:13:29;;;;;;;7.80;1.70;;;;;;;;;;5060521;28;20059;-76
2023/10/08 14:15:56;;;;;;;8.55;1.52;;;;;;;;;;5067324;28;20515;-75
2023/10/08 14:18:28;;;;;;;9.57;1.33;;;;;;;;;;5066828;28;20108;-75
2023/10/08 14:20:54;;;;;;;5.82;1.45;;;;;;;;;;5066566;28;20832;-76
2023/10/08 14:23:23;;;;;;;7.43;2.08;;;;;;;;;;5065066;28;20055;-79
2023/10/08 14:25:51;;;;;;;10.70;3.13;;;;;;;;;;5063036;28;20397;-78
2023/10/08 14:28:39;;;;;;;31.30;17.38;;;;;;;;;;5063145;28;20037;-78
2023/10/08 14:31:06;;;;;;;7.65;1.60;;;;;;;;;;5059549;28;20057;-80
2023/10/08 14:33:41;;;;;;;6.72;1.52;;;;;;;;;;5066946;28;20037;-75
2023/10/08 14:44:22;;;;;;;5.15;1.20;;;;;;;;;;5064212;28;20082;-71
2023/10/08 14:46:50;;;;;;;5.35;1.17;;;;;;;;;;5062209;28;20024;-72
2023/10/08 14:49:16;;;;;;;5.40;1.27;;;;;;;;;;5068980;28;20032;-72
2023/10/08 14:51:43;;;;;;;6.90;1.30;;;;;;;;;;5068071;28;20140;-72
2023/10/08 14:54:09;;;;;;;9.10;1.20;;;;;;;;;;5066826;28;20074;-73
2023/10/08 14:56:36;;;;;;;5.47;1.13;;;;;;;;;;5081583;28;20060;-72
2023/10/08 14:59:02;;;;;;;5.90;2.05;;;;;;;;;;5069556;28;20031;-71
2023/10/08 15:01:28;;;;;;;8.18;1.58;;;;;;;;;;5070462;28;20036;-73
2023/10/08 15:03:54;;;;;;;5.40;1.02;;;;;;;;;;5058190;28;20467;-71
2023/10/08 15:06:22;;;;;;;10.00;2.13;;;;;;;;;;5070403;28;20062;-71
2023/10/08 15:08:49;;;;;;;6.32;1.20;;;;;;;;;;5069035;28;20039;-71
2023/10/08 15:11:16;;;;;;;6.05;1.40;;;;;;;;;;5067382;28;20394;-71
2023/10/08 15:13:45;;;;;;;4.57;1.00;;;;;;;;;;5068042;28;20029;-71
2023/10/08 15:16:13;;;;;;;4.60;1.10;;;;;;;;;;5069781;28;20036;-71
2023/10/08 15:18:42;;;;;;;6.95;1.38;;;;;;;;;;5070172;28;20485;-70
2023/10/08 15:21:09;;;;;;;9.05;1.80;;;;;;;;;;5067905;28;20035;-69
2023/10/08 15:23:35;;;;;;;10.68;1.83;;;;;;;;;;5069647;28;20028;-75
2023/10/08 15:26:02;;;;;;;9.95;2.92;;;;;;;;;;5067762;28;20071;-71
2023/10/08 15:28:28;;;;;;;22.95;10.48;;;;;;;;;;5069224;28;20059;-71
2023/10/08 15:30:54;;;;;;;6.85;1.88;;;;;;;;;;5068390;28;20036;-72
2023/10/08 15:33:21;;;;;;;9.02;1.50;;;;;;;;;;5068686;28;20040;-72
2023/10/08 15:35:47;;;;;;;7.97;1.60;;;;;;;;;;5064606;28;20564;-72
2023/10/08 15:38:13;;;;;;;7.55;1.25;;;;;;;;;;5069062;28;20041;-73
2023/10/08 15:40:39;;;;;;;6.90;1.40;;;;;;;;;;5073225;28;20117;-73
2023/10/08 15:43:05;;;;;;;7.70;1.30;;;;;;;;;;5072110;28;20103;-72
2023/10/08 15:45:31;;;;;;;6.97;1.15;;;;;;;;;;5070697;28;20126;-73
2023/10/08 15:47:57;;;;;;;5.25;1.38;;;;;;;;;;5065594;28;20128;-74
2023/10/08 15:50:27;;;;;;;5.13;1.20;;;;;;;;;;5071998;28;20035;-72
2023/10/08 15:52:53;;;;;;;4.28;1.35;;;;;;;;;;5072876;28;20036;-72
2023/10/08 15:55:21;;;;;;;8.90;2.30;;;;;;;;;;5064093;28;20474;-71
2023/10/08 15:57:47;;;;;;;11.73;2.55;;;;;;;;;;5063691;28;20442;-69
2023/10/08 16:00:15;;;;;;;94.28;53.53;;;;;;;;;;5068940;28;20025;-70
2023/10/08 16:02:43;;;;;;;36.97;23.23;;;;;;;;;;5071127;28;20469;-70
2023/10/08 16:05:09;;;;;;;4.90;2.10;;;;;;;;;;5072105;28;20124;-71
2023/10/08 16:07:35;;;;;;;12.70;2.70;;;;;;;;;;5064750;28;20104;-71
2023/10/08 16:10:01;;;;;;;7.90;1.42;;;;;;;;;;5066193;28;20090;-70
2023/10/08 16:12:27;;;;;;;10.40;1.70;;;;;;;;;;5069332;28;20050;-71
2023/10/08 16:14:53;;;;;;;6.50;1.70;;;;;;;;;;5069358;28;20024;-72
2023/10/08 16:17:20;;;;;;;10.57;1.48;;;;;;;;;;5069972;28;20394;-70
2023/10/08 16:19:47;;;;;;;7.43;1.48;;;;;;;;;;5072627;28;20025;-70
2023/10/08 16:22:13;;;;;;;12.15;1.60;;;;;;;;;;5072829;28;20116;-70